sensor_id;sensor_type;location;lat;lon;timestamp;P1;durP1;ratioP1;P2;durP2;ratioP2
72119;SDS011;59993;53.052;18.576;2022-08-24T00:00:50;42.03;;;14.53;;
72119;SDS011;59993;53.052;18.576;2022-08-24T00:03:16;43.38;;;16.58;;
72119;SDS011;59993;53.052;18.576;2022-08-24T00:05:41;43.77;;;17.63;;
72119;SDS011;59993;53.052;18.576;2022-08-24T00:08:07;41.60;;;15.93;;
72119;SDS011;59993;53.052;18.576;2022-08-24T00:10:32;43.43;;;17.03;;
72119;SDS011;59993;53.052;18.576;2022-08-24T00:12:58;39.67;;;14.23;;
72119;SDS011;59993;53.052;18.576;2022-08-24T00:15:23;46.97;;;16.23;;
72119;SDS011;59993;53.052;18.576;2022-08-24T00:17:49;33.93;;;15.37;;
72119;SDS011;59993;53.052;18.576;2022-08-24T00:20:15;38.10;;;14.83;;
72119;SDS011;59993;53.052;18.576;2022-08-24T00:22:41;40.45;;;16.67;;
72119;SDS011;59993;53.052;18.576;2022-08-24T00:25:07;40.60;;;15.02;;
72119;SDS011;59993;53.052;18.576;2022-08-24T00:27:35;40.60;;;15.13;;
72119;SDS011;59993;53.052;18.576;2022-08-24T00:30:02;47.72;;;16.38;;
72119;SDS011;59993;53.052;18.576;2022-08-24T00:32:33;30.83;;;12.37;;
72119;SDS011;59993;53.052;18.576;2022-08-24T00:34:59;44.20;;;17.23;;
72119;SDS011;59993;53.052;18.576;2022-08-24T00:37:26;40.93;;;15.80;;
72119;SDS011;59993;53.052;18.576;2022-08-24T00:39:52;33.67;;;15.93;;
72119;SDS011;59993;53.052;18.576;2022-08-24T00:42:18;39.63;;;13.63;;
72119;SDS011;59993;53.052;18.576;2022-08-24T00:44:44;47.10;;;15.30;;
72119;SDS011;59993;53.052;18.576;2022-08-24T00:47:23;41.67;;;15.48;;
72119;SDS011;59993;53.052;18.576;2022-08-24T00:49:56;51.03;;;17.42;;
72119;SDS011;59993;53.052;18.576;2022-08-24T00:52:31;53.90;;;18.60;;
72119;SDS011;59993;53.052;18.576;2022-08-24T00:55:13;31.92;;;13.00;;
72119;SDS011;59993;53.052;18.576;2022-08-24T00:57:44;50.40;;;17.17;;
72119;SDS011;59993;53.052;18.576;2022-08-24T01:00:14;50.88;;;16.08;;
72119;SDS011;59993;53.052;18.576;2022-08-24T01:02:43;36.75;;;14.07;;
72119;SDS011;59993;53.052;18.576;2022-08-24T01:05:14;48.40;;;16.17;;
72119;SDS011;59993;53.052;18.576;2022-08-24T01:07:43;39.58;;;14.00;;
72119;SDS011;59993;53.052;18.576;2022-08-24T01:10:12;42.65;;;15.00;;
72119;SDS011;59993;53.052;18.576;2022-08-24T01:12:42;37.45;;;13.50;;
72119;SDS011;59993;53.052;18.576;2022-08-24T01:15:10;18.25;;;9.60;;
72119;SDS011;59993;53.052;18.576;2022-08-24T01:17:37;52.47;;;16.63;;
72119;SDS011;59993;53.052;18.576;2022-08-24T01:20:21;48.95;;;14.65;;
72119;SDS011;59993;53.052;18.576;2022-08-24T01:25:27;35.75;;;13.23;;
72119;SDS011;59993;53.052;18.576;2022-08-24T01:27:55;46.35;;;14.38;;
72119;SDS011;59993;53.052;18.576;2022-08-24T01:30:25;41.73;;;14.07;;
72119;SDS011;59993;53.052;18.576;2022-08-24T01:32:53;26.95;;;10.45;;
72119;SDS011;59993;53.052;18.576;2022-08-24T01:35:21;32.63;;;11.63;;
72119;SDS011;59993;53.052;18.576;2022-08-24T01:37:46;36.85;;;12.43;;
72119;SDS011;59993;53.052;18.576;2022-08-24T01:40:13;25.50;;;9.67;;
72119;SDS011;59993;53.052;18.576;2022-08-24T01:42:39;33.03;;;9.77;;
72119;SDS011;59993;53.052;18.576;2022-08-24T01:45:05;28.70;;;10.82;;
72119;SDS011;59993;53.052;18.576;2022-08-24T01:47:30;26.60;;;10.90;;
72119;SDS011;59993;53.052;18.576;2022-08-24T01:49:56;33.88;;;10.57;;
72119;SDS011;59993;53.052;18.576;2022-08-24T01:52:22;45.97;;;13.03;;
72119;SDS011;59993;53.052;18.576;2022-08-24T01:54:50;38.30;;;13.10;;
72119;SDS011;59993;53.052;18.576;2022-08-24T01:57:16;47.67;;;13.57;;
72119;SDS011;59993;53.052;18.576;2022-08-24T01:59:41;37.03;;;12.30;;
72119;SDS011;59993;53.052;18.576;2022-08-24T02:02:11;44.28;;;12.95;;
72119;SDS011;59993;53.052;18.576;2022-08-24T02:04:41;43.28;;;13.10;;
72119;SDS011;59993;53.052;18.576;2022-08-24T02:07:07;40.13;;;10.53;;
72119;SDS011;59993;53.052;18.576;2022-08-24T02:09:34;49.00;;;12.70;;
72119;SDS011;59993;53.052;18.576;2022-08-24T02:12:01;60.05;;;14.75;;
72119;SDS011;59993;53.052;18.576;2022-08-24T02:14:27;35.07;;;12.40;;
72119;SDS011;59993;53.052;18.576;2022-08-24T02:16:53;48.78;;;15.90;;
72119;SDS011;59993;53.052;18.576;2022-08-24T02:19:20;57.25;;;14.30;;
72119;SDS011;59993;53.052;18.576;2022-08-24T02:21:45;61.50;;;14.10;;
72119;SDS011;59993;53.052;18.576;2022-08-24T02:24:11;48.67;;;11.55;;
72119;SDS011;59993;53.052;18.576;2022-08-24T02:26:37;52.80;;;13.13;;
72119;SDS011;59993;53.052;18.576;2022-08-24T02:29:03;57.87;;;13.97;;
72119;SDS011;59993;53.052;18.576;2022-08-24T02:31:28;52.03;;;13.30;;
72119;SDS011;59993;53.052;18.576;2022-08-24T02:33:54;50.92;;;13.63;;
72119;SDS011;59993;53.052;18.576;2022-08-24T02:36:20;51.70;;;12.80;;
72119;SDS011;59993;53.052;18.576;2022-08-24T02:38:47;33.20;;;10.50;;
72119;SDS011;59993;53.052;18.576;2022-08-24T02:41:12;45.93;;;12.07;;
72119;SDS011;59993;53.052;18.576;2022-08-24T02:43:38;39.20;;;12.60;;
72119;SDS011;59993;53.052;18.576;2022-08-24T02:46:04;32.45;;;8.80;;
72119;SDS011;59993;53.052;18.576;2022-08-24T02:48:30;30.02;;;10.63;;
72119;SDS011;59993;53.052;18.576;2022-08-24T02:50:56;33.70;;;11.07;;
72119;SDS011;59993;53.052;18.576;2022-08-24T02:53:22;50.55;;;12.35;;
72119;SDS011;59993;53.052;18.576;2022-08-24T02:55:47;42.07;;;12.47;;
72119;SDS011;59993;53.052;18.576;2022-08-24T02:58:14;30.20;;;9.45;;
72119;SDS011;59993;53.052;18.576;2022-08-24T03:00:40;36.28;;;11.43;;
72119;SDS011;59993;53.052;18.576;2022-08-24T03:03:07;42.30;;;12.07;;
72119;SDS011;59993;53.052;18.576;2022-08-24T03:05:33;38.45;;;11.75;;
72119;SDS011;59993;53.052;18.576;2022-08-24T03:07:59;37.03;;;14.20;;
72119;SDS011;59993;53.052;18.576;2022-08-24T03:10:25;32.65;;;11.73;;
72119;SDS011;59993;53.052;18.576;2022-08-24T03:12:51;31.30;;;12.20;;
72119;SDS011;59993;53.052;18.576;2022-08-24T03:15:18;25.80;;;10.82;;
72119;SDS011;59993;53.052;18.576;2022-08-24T03:17:48;33.08;;;12.45;;
72119;SDS011;59993;53.052;18.576;2022-08-24T03:20:15;47.13;;;14.97;;
72119;SDS011;59993;53.052;18.576;2022-08-24T03:22:44;38.20;;;14.23;;
72119;SDS011;59993;53.052;18.576;2022-08-24T03:25:10;35.88;;;12.48;;
72119;SDS011;59993;53.052;18.576;2022-08-24T03:27:37;34.15;;;14.05;;
72119;SDS011;59993;53.052;18.576;2022-08-24T03:30:03;36.87;;;11.93;;
72119;SDS011;59993;53.052;18.576;2022-08-24T03:32:30;35.08;;;13.35;;
72119;SDS011;59993;53.052;18.576;2022-08-24T03:34:56;39.27;;;13.60;;
72119;SDS011;59993;53.052;18.576;2022-08-24T03:37:21;38.63;;;14.38;;
72119;SDS011;59993;53.052;18.576;2022-08-24T03:39:47;29.67;;;10.87;;
72119;SDS011;59993;53.052;18.576;2022-08-24T03:42:14;46.90;;;14.48;;
72119;SDS011;59993;53.052;18.576;2022-08-24T03:44:40;26.83;;;9.90;;
72119;SDS011;59993;53.052;18.576;2022-08-24T03:47:06;40.47;;;12.97;;
72119;SDS011;59993;53.052;18.576;2022-08-24T03:49:34;29.42;;;12.05;;
72119;SDS011;59993;53.052;18.576;2022-08-24T03:51:59;28.13;;;11.20;;
72119;SDS011;59993;53.052;18.576;2022-08-24T03:54:25;33.35;;;11.38;;
72119;SDS011;59993;53.052;18.576;2022-08-24T03:56:51;32.15;;;11.88;;
72119;SDS011;59993;53.052;18.576;2022-08-24T03:59:16;24.50;;;10.73;;
72119;SDS011;59993;53.052;18.576;2022-08-24T04:01:42;24.10;;;10.10;;
72119;SDS011;59993;53.052;18.576;2022-08-24T04:04:08;27.87;;;11.20;;
72119;SDS011;59993;53.052;18.576;2022-08-24T04:06:34;38.47;;;13.43;;
72119;SDS011;59993;53.052;18.576;2022-08-24T04:08:59;41.22;;;12.32;;
72119;SDS011;59993;53.052;18.576;2022-08-24T04:11:26;32.53;;;11.70;;
72119;SDS011;59993;53.052;18.576;2022-08-24T04:13:53;46.10;;;14.25;;
72119;SDS011;59993;53.052;18.576;2022-08-24T04:16:21;40.30;;;13.63;;
72119;SDS011;59993;53.052;18.576;2022-08-24T04:18:48;39.85;;;13.88;;
72119;SDS011;59993;53.052;18.576;2022-08-24T04:21:20;43.88;;;14.48;;
72119;SDS011;59993;53.052;18.576;2022-08-24T04:23:49;43.58;;;14.05;;
72119;SDS011;59993;53.052;18.576;2022-08-24T04:26:16;42.55;;;14.43;;
72119;SDS011;59993;53.052;18.576;2022-08-24T04:28:43;35.80;;;11.60;;
72119;SDS011;59993;53.052;18.576;2022-08-24T04:31:09;35.45;;;12.95;;
72119;SDS011;59993;53.052;18.576;2022-08-24T04:33:34;36.17;;;11.63;;
72119;SDS011;59993;53.052;18.576;2022-08-24T04:36:00;30.75;;;11.45;;
72119;SDS011;59993;53.052;18.576;2022-08-24T04:38:26;39.08;;;12.18;;
72119;SDS011;59993;53.052;18.576;2022-08-24T04:40:53;26.17;;;9.63;;
72119;SDS011;59993;53.052;18.576;2022-08-24T04:43:19;41.50;;;14.00;;
72119;SDS011;59993;53.052;18.576;2022-08-24T04:45:45;34.10;;;11.60;;
72119;SDS011;59993;53.052;18.576;2022-08-24T04:48:12;41.20;;;12.30;;
72119;SDS011;59993;53.052;18.576;2022-08-24T04:50:40;37.63;;;11.20;;
72119;SDS011;59993;53.052;18.576;2022-08-24T04:53:07;21.38;;;8.98;;
72119;SDS011;59993;53.052;18.576;2022-08-24T04:55:33;43.78;;;13.75;;
72119;SDS011;59993;53.052;18.576;2022-08-24T04:58:08;36.23;;;11.20;;
72119;SDS011;59993;53.052;18.576;2022-08-24T05:00:34;41.40;;;13.38;;
72119;SDS011;59993;53.052;18.576;2022-08-24T05:02:59;29.90;;;11.27;;
72119;SDS011;59993;53.052;18.576;2022-08-24T05:05:25;46.27;;;15.47;;
72119;SDS011;59993;53.052;18.576;2022-08-24T05:07:50;47.23;;;14.97;;
72119;SDS011;59993;53.052;18.576;2022-08-24T05:10:16;32.53;;;13.27;;
72119;SDS011;59993;53.052;18.576;2022-08-24T05:12:41;44.25;;;13.48;;
72119;SDS011;59993;53.052;18.576;2022-08-24T05:15:08;55.95;;;15.48;;
72119;SDS011;59993;53.052;18.576;2022-08-24T05:17:34;44.10;;;12.90;;
72119;SDS011;59993;53.052;18.576;2022-08-24T05:19:59;42.67;;;13.55;;
72119;SDS011;59993;53.052;18.576;2022-08-24T05:22:26;61.53;;;16.80;;
72119;SDS011;59993;53.052;18.576;2022-08-24T05:24:51;12.13;;;5.40;;
72119;SDS011;59993;53.052;18.576;2022-08-24T05:27:17;67.53;;;18.63;;
72119;SDS011;59993;53.052;18.576;2022-08-24T05:29:44;58.20;;;16.67;;
72119;SDS011;59993;53.052;18.576;2022-08-24T05:32:09;60.58;;;16.80;;
72119;SDS011;59993;53.052;18.576;2022-08-24T05:34:36;54.25;;;14.25;;
72119;SDS011;59993;53.052;18.576;2022-08-24T05:37:03;71.65;;;18.13;;
72119;SDS011;59993;53.052;18.576;2022-08-24T05:39:28;52.87;;;13.27;;
72119;SDS011;59993;53.052;18.576;2022-08-24T05:41:55;73.85;;;16.17;;
72119;SDS011;59993;53.052;18.576;2022-08-24T05:44:23;61.20;;;14.60;;
72119;SDS011;59993;53.052;18.576;2022-08-24T05:46:49;72.87;;;18.83;;
72119;SDS011;59993;53.052;18.576;2022-08-24T05:49:14;74.30;;;18.33;;
72119;SDS011;59993;53.052;18.576;2022-08-24T05:51:40;67.63;;;16.90;;
72119;SDS011;59993;53.052;18.576;2022-08-24T05:54:07;65.38;;;16.58;;
72119;SDS011;59993;53.052;18.576;2022-08-24T05:56:34;56.80;;;16.53;;
72119;SDS011;59993;53.052;18.576;2022-08-24T05:58:59;62.00;;;16.65;;
72119;SDS011;59993;53.052;18.576;2022-08-24T06:01:25;47.00;;;14.23;;
72119;SDS011;59993;53.052;18.576;2022-08-24T06:03:52;56.33;;;15.73;;
72119;SDS011;59993;53.052;18.576;2022-08-24T06:06:19;44.85;;;11.93;;
72119;SDS011;59993;53.052;18.576;2022-08-24T06:08:48;72.78;;;17.27;;
72119;SDS011;59993;53.052;18.576;2022-08-24T06:11:20;69.17;;;16.00;;
72119;SDS011;59993;53.052;18.576;2022-08-24T06:13:49;51.03;;;13.85;;
72119;SDS011;59993;53.052;18.576;2022-08-24T06:16:18;64.80;;;16.77;;
72119;SDS011;59993;53.052;18.576;2022-08-24T06:18:44;62.40;;;16.27;;
72119;SDS011;59993;53.052;18.576;2022-08-24T06:21:11;66.80;;;17.90;;
72119;SDS011;59993;53.052;18.576;2022-08-24T06:23:40;68.40;;;18.63;;
72119;SDS011;59993;53.052;18.576;2022-08-24T06:26:08;65.30;;;17.52;;
72119;SDS011;59993;53.052;18.576;2022-08-24T06:28:54;69.85;;;18.52;;
72119;SDS011;59993;53.052;18.576;2022-08-24T06:31:20;75.27;;;17.47;;
72119;SDS011;59993;53.052;18.576;2022-08-24T06:33:48;66.40;;;18.33;;
72119;SDS011;59993;53.052;18.576;2022-08-24T06:36:14;48.15;;;16.27;;
72119;SDS011;59993;53.052;18.576;2022-08-24T06:38:40;62.77;;;17.60;;
72119;SDS011;59993;53.052;18.576;2022-08-24T06:41:06;64.60;;;17.23;;
72119;SDS011;59993;53.052;18.576;2022-08-24T06:43:32;60.35;;;17.08;;
72119;SDS011;59993;53.052;18.576;2022-08-24T06:45:58;57.22;;;17.85;;
72119;SDS011;59993;53.052;18.576;2022-08-24T06:48:25;60.03;;;17.27;;
72119;SDS011;59993;53.052;18.576;2022-08-24T06:50:51;45.50;;;15.30;;
72119;SDS011;59993;53.052;18.576;2022-08-24T06:53:17;58.92;;;17.67;;
72119;SDS011;59993;53.052;18.576;2022-08-24T06:55:48;49.73;;;16.73;;
72119;SDS011;59993;53.052;18.576;2022-08-24T06:58:15;59.88;;;17.67;;
72119;SDS011;59993;53.052;18.576;2022-08-24T07:00:42;48.05;;;16.17;;
72119;SDS011;59993;53.052;18.576;2022-08-24T07:03:07;49.33;;;17.63;;
72119;SDS011;59993;53.052;18.576;2022-08-24T07:05:33;30.23;;;13.00;;
72119;SDS011;59993;53.052;18.576;2022-08-24T07:07:59;40.40;;;14.70;;
72119;SDS011;59993;53.052;18.576;2022-08-24T07:10:25;42.50;;;15.57;;
72119;SDS011;59993;53.052;18.576;2022-08-24T07:12:52;37.08;;;13.32;;
72119;SDS011;59993;53.052;18.576;2022-08-24T07:15:17;47.03;;;16.50;;
72119;SDS011;59993;53.052;18.576;2022-08-24T07:17:44;44.97;;;16.63;;
72119;SDS011;59993;53.052;18.576;2022-08-24T07:20:10;41.90;;;17.38;;
72119;SDS011;59993;53.052;18.576;2022-08-24T07:22:36;42.75;;;17.50;;
72119;SDS011;59993;53.052;18.576;2022-08-24T07:25:03;44.15;;;18.00;;
72119;SDS011;59993;53.052;18.576;2022-08-24T07:27:29;29.53;;;13.00;;
72119;SDS011;59993;53.052;18.576;2022-08-24T07:29:54;24.98;;;11.98;;
72119;SDS011;59993;53.052;18.576;2022-08-24T07:32:20;33.08;;;15.45;;
72119;SDS011;59993;53.052;18.576;2022-08-24T07:34:46;33.37;;;15.70;;
72119;SDS011;59993;53.052;18.576;2022-08-24T07:37:11;39.20;;;18.47;;
72119;SDS011;59993;53.052;18.576;2022-08-24T07:39:37;39.80;;;16.70;;
72119;SDS011;59993;53.052;18.576;2022-08-24T07:42:03;39.27;;;15.27;;
72119;SDS011;59993;53.052;18.576;2022-08-24T07:44:28;28.83;;;13.60;;
72119;SDS011;59993;53.052;18.576;2022-08-24T07:46:55;37.43;;;15.73;;
72119;SDS011;59993;53.052;18.576;2022-08-24T07:49:21;32.33;;;13.48;;
72119;SDS011;59993;53.052;18.576;2022-08-24T07:51:47;26.63;;;12.07;;
72119;SDS011;59993;53.052;18.576;2022-08-24T07:54:13;42.00;;;17.30;;
72119;SDS011;59993;53.052;18.576;2022-08-24T07:56:40;29.20;;;15.88;;
72119;SDS011;59993;53.052;18.576;2022-08-24T07:59:06;31.13;;;14.70;;
72119;SDS011;59993;53.052;18.576;2022-08-24T08:01:32;39.17;;;18.47;;
72119;SDS011;59993;53.052;18.576;2022-08-24T08:03:58;33.92;;;16.85;;
72119;SDS011;59993;53.052;18.576;2022-08-24T08:06:23;30.93;;;15.93;;
72119;SDS011;59993;53.052;18.576;2022-08-24T08:08:49;40.57;;;18.80;;
72119;SDS011;59993;53.052;18.576;2022-08-24T08:11:14;37.05;;;18.50;;
72119;SDS011;59993;53.052;18.576;2022-08-24T08:13:40;33.43;;;16.23;;
72119;SDS011;59993;53.052;18.576;2022-08-24T08:16:05;31.10;;;16.97;;
72119;SDS011;59993;53.052;18.576;2022-08-24T08:18:31;41.90;;;17.63;;
72119;SDS011;59993;53.052;18.576;2022-08-24T08:20:57;41.57;;;19.13;;
72119;SDS011;59993;53.052;18.576;2022-08-24T08:23:22;38.33;;;17.67;;
72119;SDS011;59993;53.052;18.576;2022-08-24T08:26:11;39.83;;;19.27;;
72119;SDS011;59993;53.052;18.576;2022-08-24T08:28:39;42.42;;;19.70;;
72119;SDS011;59993;53.052;18.576;2022-08-24T08:31:06;37.77;;;17.97;;
72119;SDS011;59993;53.052;18.576;2022-08-24T08:33:32;41.08;;;19.55;;
72119;SDS011;59993;53.052;18.576;2022-08-24T08:38:38;37.15;;;20.75;;
72119;SDS011;59993;53.052;18.576;2022-08-24T08:43:57;40.70;;;19.20;;
72119;SDS011;59993;53.052;18.576;2022-08-24T08:49:33;29.98;;;17.65;;
72119;SDS011;59993;53.052;18.576;2022-08-24T08:52:24;39.85;;;18.92;;
72119;SDS011;59993;53.052;18.576;2022-08-24T09:06:01;32.20;;;16.93;;
72119;SDS011;59993;53.052;18.576;2022-08-24T09:08:47;35.13;;;17.17;;
72119;SDS011;59993;53.052;18.576;2022-08-24T09:27:21;27.67;;;14.10;;
72119;SDS011;59993;53.052;18.576;2022-08-24T09:35:44;21.35;;;12.82;;
72119;SDS011;59993;53.052;18.576;2022-08-24T10:00:45;24.25;;;13.52;;
72119;SDS011;59993;53.052;18.576;2022-08-24T10:11:46;15.75;;;9.40;;
72119;SDS011;59993;53.052;18.576;2022-08-24T10:20:23;19.52;;;9.57;;
72119;SDS011;59993;53.052;18.576;2022-08-24T10:23:10;19.65;;;10.25;;
72119;SDS011;59993;53.052;18.576;2022-08-24T10:25:55;15.13;;;9.30;;
72119;SDS011;59993;53.052;18.576;2022-08-24T10:31:16;12.57;;;6.87;;
72119;SDS011;59993;53.052;18.576;2022-08-24T10:36:30;21.35;;;9.25;;
72119;SDS011;59993;53.052;18.576;2022-08-24T10:45:28;14.43;;;7.90;;
72119;SDS011;59993;53.052;18.576;2022-08-24T10:53:32;22.60;;;8.48;;
72119;SDS011;59993;53.052;18.576;2022-08-24T10:56:09;16.27;;;6.80;;
72119;SDS011;59993;53.052;18.576;2022-08-24T10:58:43;14.10;;;7.80;;
72119;SDS011;59993;53.052;18.576;2022-08-24T11:04:01;19.73;;;9.10;;
72119;SDS011;59993;53.052;18.576;2022-08-24T11:06:36;15.82;;;7.20;;
72119;SDS011;59993;53.052;18.576;2022-08-24T11:09:10;14.27;;;6.97;;
72119;SDS011;59993;53.052;18.576;2022-08-24T11:11:40;18.50;;;7.83;;
72119;SDS011;59993;53.052;18.576;2022-08-24T11:16:47;16.70;;;8.57;;
72119;SDS011;59993;53.052;18.576;2022-08-24T11:21:52;15.95;;;7.97;;
72119;SDS011;59993;53.052;18.576;2022-08-24T11:24:24;15.53;;;7.10;;
72119;SDS011;59993;53.052;18.576;2022-08-24T11:26:57;16.63;;;6.93;;
72119;SDS011;59993;53.052;18.576;2022-08-24T11:29:54;17.33;;;6.82;;
72119;SDS011;59993;53.052;18.576;2022-08-24T11:32:25;15.00;;;5.47;;
72119;SDS011;59993;53.052;18.576;2022-08-24T11:40:32;12.00;;;4.90;;
72119;SDS011;59993;53.052;18.576;2022-08-24T11:51:45;14.83;;;6.50;;
72119;SDS011;59993;53.052;18.576;2022-08-24T12:00:37;16.10;;;6.43;;
72119;SDS011;59993;53.052;18.576;2022-08-24T12:11:41;13.23;;;5.15;;
72119;SDS011;59993;53.052;18.576;2022-08-24T12:19:54;17.33;;;6.10;;
72119;SDS011;59993;53.052;18.576;2022-08-24T12:22:25;15.60;;;5.22;;
72119;SDS011;59993;53.052;18.576;2022-08-24T12:24:53;14.27;;;4.70;;
72119;SDS011;59993;53.052;18.576;2022-08-24T12:27:29;13.40;;;5.22;;
72119;SDS011;59993;53.052;18.576;2022-08-24T12:32:41;8.30;;;4.80;;
72119;SDS011;59993;53.052;18.576;2022-08-24T12:40:46;18.30;;;5.20;;
72119;SDS011;59993;53.052;18.576;2022-08-24T12:43:37;13.18;;;5.13;;
72119;SDS011;59993;53.052;18.576;2022-08-24T12:46:07;15.00;;;5.23;;
72119;SDS011;59993;53.052;18.576;2022-08-24T12:51:18;11.30;;;4.30;;
72119;SDS011;59993;53.052;18.576;2022-08-24T12:57:06;12.45;;;5.07;;
72119;SDS011;59993;53.052;18.576;2022-08-24T12:59:56;13.53;;;4.70;;
72119;SDS011;59993;53.052;18.576;2022-08-24T13:02:31;12.73;;;4.68;;
72119;SDS011;59993;53.052;18.576;2022-08-24T13:05:10;6.85;;;2.47;;
72119;SDS011;59993;53.052;18.576;2022-08-24T13:07:41;10.95;;;5.50;;
72119;SDS011;59993;53.052;18.576;2022-08-24T13:10:33;12.77;;;4.38;;
72119;SDS011;59993;53.052;18.576;2022-08-24T13:33:52;11.05;;;5.05;;
72119;SDS011;59993;53.052;18.576;2022-08-24T13:42:07;12.75;;;4.53;;
72119;SDS011;59993;53.052;18.576;2022-08-24T13:48:06;11.85;;;4.43;;
72119;SDS011;59993;53.052;18.576;2022-08-24T14:17:29;8.25;;;4.53;;
72119;SDS011;59993;53.052;18.576;2022-08-24T14:37:22;14.18;;;5.57;;
72119;SDS011;59993;53.052;18.576;2022-08-24T14:40:14;15.50;;;5.65;;
72119;SDS011;59993;53.052;18.576;2022-08-24T14:46:17;14.18;;;6.10;;
72119;SDS011;59993;53.052;18.576;2022-08-24T14:48:49;12.47;;;5.30;;
72119;SDS011;59993;53.052;18.576;2022-08-24T14:51:37;13.05;;;5.75;;
72119;SDS011;59993;53.052;18.576;2022-08-24T15:00:53;8.80;;;4.90;;
72119;SDS011;59993;53.052;18.576;2022-08-24T15:03:38;9.90;;;5.23;;
72119;SDS011;59993;53.052;18.576;2022-08-24T15:06:27;16.15;;;5.13;;
72119;SDS011;59993;53.052;18.576;2022-08-24T15:09:16;16.08;;;5.78;;
72119;SDS011;59993;53.052;18.576;2022-08-24T15:11:46;19.85;;;6.35;;
72119;SDS011;59993;53.052;18.576;2022-08-24T15:14:37;13.27;;;5.57;;
72119;SDS011;59993;53.052;18.576;2022-08-24T15:17:06;15.57;;;5.33;;
72119;SDS011;59993;53.052;18.576;2022-08-24T15:25:06;13.38;;;4.50;;
72119;SDS011;59993;53.052;18.576;2022-08-24T15:30:35;13.40;;;4.53;;
72119;SDS011;59993;53.052;18.576;2022-08-24T15:33:08;11.70;;;4.43;;
72119;SDS011;59993;53.052;18.576;2022-08-24T15:35:38;12.98;;;5.80;;
72119;SDS011;59993;53.052;18.576;2022-08-24T15:38:20;17.45;;;5.10;;
72119;SDS011;59993;53.052;18.576;2022-08-24T15:40:46;12.38;;;5.35;;
72119;SDS011;59993;53.052;18.576;2022-08-24T15:43:15;20.13;;;4.97;;
72119;SDS011;59993;53.052;18.576;2022-08-24T15:45:44;11.10;;;4.03;;
72119;SDS011;59993;53.052;18.576;2022-08-24T15:48:13;9.65;;;4.35;;
72119;SDS011;59993;53.052;18.576;2022-08-24T15:50:44;14.90;;;4.78;;
72119;SDS011;59993;53.052;18.576;2022-08-24T15:53:28;11.30;;;4.47;;
72119;SDS011;59993;53.052;18.576;2022-08-24T15:56:25;15.60;;;5.03;;
72119;SDS011;59993;53.052;18.576;2022-08-24T15:59:10;16.92;;;4.78;;
72119;SDS011;59993;53.052;18.576;2022-08-24T16:01:37;12.40;;;4.35;;
72119;SDS011;59993;53.052;18.576;2022-08-24T16:04:44;13.02;;;4.07;;
72119;SDS011;59993;53.052;18.576;2022-08-24T16:07:13;12.83;;;5.07;;
72119;SDS011;59993;53.052;18.576;2022-08-24T16:09:45;13.70;;;4.70;;
72119;SDS011;59993;53.052;18.576;2022-08-24T16:12:12;18.37;;;5.20;;
72119;SDS011;59993;53.052;18.576;2022-08-24T16:14:46;14.07;;;3.83;;
72119;SDS011;59993;53.052;18.576;2022-08-24T16:17:24;10.63;;;4.00;;
72119;SDS011;59993;53.052;18.576;2022-08-24T16:20:15;8.05;;;4.22;;
72119;SDS011;59993;53.052;18.576;2022-08-24T16:22:59;14.68;;;4.18;;
72119;SDS011;59993;53.052;18.576;2022-08-24T16:30:56;12.07;;;4.05;;
72119;SDS011;59993;53.052;18.576;2022-08-24T16:36:05;14.48;;;3.83;;
72119;SDS011;59993;53.052;18.576;2022-08-24T16:38:34;9.55;;;4.43;;
72119;SDS011;59993;53.052;18.576;2022-08-24T16:41:02;17.37;;;4.07;;
72119;SDS011;59993;53.052;18.576;2022-08-24T16:43:36;14.88;;;3.80;;
72119;SDS011;59993;53.052;18.576;2022-08-24T16:46:05;17.90;;;5.28;;
72119;SDS011;59993;53.052;18.576;2022-08-24T16:48:32;14.88;;;3.90;;
72119;SDS011;59993;53.052;18.576;2022-08-24T16:50:58;14.10;;;4.10;;
72119;SDS011;59993;53.052;18.576;2022-08-24T16:53:24;16.15;;;3.88;;
72119;SDS011;59993;53.052;18.576;2022-08-24T16:55:50;14.82;;;4.35;;
72119;SDS011;59993;53.052;18.576;2022-08-24T16:58:17;16.77;;;3.70;;
72119;SDS011;59993;53.052;18.576;2022-08-24T17:00:43;17.20;;;3.78;;
72119;SDS011;59993;53.052;18.576;2022-08-24T17:03:10;16.15;;;3.72;;
72119;SDS011;59993;53.052;18.576;2022-08-24T17:05:37;11.00;;;3.33;;
72119;SDS011;59993;53.052;18.576;2022-08-24T17:08:02;12.33;;;4.00;;
72119;SDS011;59993;53.052;18.576;2022-08-24T17:10:28;13.77;;;3.57;;
72119;SDS011;59993;53.052;18.576;2022-08-24T17:12:55;10.15;;;3.50;;
72119;SDS011;59993;53.052;18.576;2022-08-24T17:15:22;16.42;;;3.78;;
72119;SDS011;59993;53.052;18.576;2022-08-24T17:18:09;14.27;;;3.50;;
72119;SDS011;59993;53.052;18.576;2022-08-24T17:20:34;14.97;;;3.70;;
72119;SDS011;59993;53.052;18.576;2022-08-24T17:23:00;8.18;;;3.83;;
72119;SDS011;59993;53.052;18.576;2022-08-24T17:25:26;12.20;;;4.30;;
72119;SDS011;59993;53.052;18.576;2022-08-24T17:27:54;15.20;;;3.83;;
72119;SDS011;59993;53.052;18.576;2022-08-24T17:30:20;16.25;;;3.70;;
72119;SDS011;59993;53.052;18.576;2022-08-24T17:32:48;12.02;;;4.00;;
72119;SDS011;59993;53.052;18.576;2022-08-24T17:35:16;12.02;;;4.57;;
72119;SDS011;59993;53.052;18.576;2022-08-24T17:37:42;9.17;;;3.70;;
72119;SDS011;59993;53.052;18.576;2022-08-24T17:40:11;14.25;;;3.88;;
72119;SDS011;59993;53.052;18.576;2022-08-24T17:42:39;20.75;;;4.40;;
72119;SDS011;59993;53.052;18.576;2022-08-24T17:45:05;17.43;;;4.40;;
72119;SDS011;59993;53.052;18.576;2022-08-24T17:47:31;19.27;;;4.88;;
72119;SDS011;59993;53.052;18.576;2022-08-24T17:50:00;14.88;;;4.00;;
72119;SDS011;59993;53.052;18.576;2022-08-24T17:52:26;12.57;;;3.83;;
72119;SDS011;59993;53.052;18.576;2022-08-24T17:54:52;11.03;;;4.17;;
72119;SDS011;59993;53.052;18.576;2022-08-24T17:57:17;11.98;;;3.90;;
72119;SDS011;59993;53.052;18.576;2022-08-24T17:59:47;17.67;;;4.22;;
72119;SDS011;59993;53.052;18.576;2022-08-24T18:02:14;14.63;;;5.50;;
72119;SDS011;59993;53.052;18.576;2022-08-24T18:04:40;15.80;;;4.65;;
72119;SDS011;59993;53.052;18.576;2022-08-24T18:07:08;13.05;;;3.97;;
72119;SDS011;59993;53.052;18.576;2022-08-24T18:09:38;11.47;;;4.33;;
72119;SDS011;59993;53.052;18.576;2022-08-24T18:12:07;13.63;;;5.30;;
72119;SDS011;59993;53.052;18.576;2022-08-24T18:14:33;17.52;;;5.22;;
72119;SDS011;59993;53.052;18.576;2022-08-24T18:17:03;14.30;;;5.30;;
72119;SDS011;59993;53.052;18.576;2022-08-24T18:19:32;14.02;;;4.18;;
72119;SDS011;59993;53.052;18.576;2022-08-24T18:21:58;17.67;;;5.17;;
72119;SDS011;59993;53.052;18.576;2022-08-24T18:24:25;12.00;;;5.05;;
72119;SDS011;59993;53.052;18.576;2022-08-24T18:26:56;16.10;;;5.07;;
72119;SDS011;59993;53.052;18.576;2022-08-24T18:29:27;12.25;;;4.97;;
72119;SDS011;59993;53.052;18.576;2022-08-24T18:31:53;14.35;;;5.93;;
72119;SDS011;59993;53.052;18.576;2022-08-24T18:34:20;12.40;;;5.33;;
72119;SDS011;59993;53.052;18.576;2022-08-24T18:36:46;13.10;;;4.97;;
72119;SDS011;59993;53.052;18.576;2022-08-24T18:39:12;17.25;;;5.82;;
72119;SDS011;59993;53.052;18.576;2022-08-24T18:41:39;14.27;;;5.87;;